Time;durP1;ratioP1;P1;durP2;ratioP2;P2;SDS_P1;SDS_P2;PMS_P1;PMS_P2;Temp;Humidity;BMP_temperature;BMP_pressure;BME280_temperature;BME280_humidity;BME280_pressure;Samples;Min_cycle;Max_cycle;Signal;HPM_P1;HPM_P2
2021/09/03 00:01:11;;;;;;;13.13;7.00;;;;;;;12.24;78.60;100394.56;5119725;28;20399;-47
2021/09/03 00:03:37;;;;;;;10.63;5.95;;;;;;;12.23;78.66;100381.50;5119655;28;20048;-48
2021/09/03 00:06:03;;;;;;;9.27;5.10;;;;;;;12.21;78.83;100381.50;5119598;28;20074;-48
2021/09/03 00:08:28;;;;;;;11.73;6.47;;;;;;;12.19;79.12;100383.34;5119304;28;20097;-48
2021/09/03 00:10:54;;;;;;;15.98;6.75;;;;;;;12.18;79.08;100383.34;5119516;28;20051;-48
2021/09/03 00:13:20;;;;;;;20.55;8.63;;;;;;;12.15;78.99;100382.53;5119992;28;20421;-48
2021/09/03 00:15:46;;;;;;;18.90;8.43;;;;;;;12.12;78.80;100376.47;5119647;28;20032;-47
2021/09/03 00:18:12;;;;;;;13.57;7.40;;;;;;;12.10;79.05;100378.28;5118758;28;20056;-47
2021/09/03 00:20:37;;;;;;;14.88;7.82;;;;;;;12.05;78.93;100381.00;5119023;28;20056;-48
2021/09/03 00:23:03;;;;;;;14.57;7.90;;;;;;;12.01;79.10;100373.22;5119311;28;20062;-47
2021/09/03 00:25:29;;;;;;;17.05;8.10;;;;;;;12.02;79.20;100370.56;5118610;28;20108;-47
2021/09/03 00:27:55;;;;;;;15.15;7.20;;;;;;;11.99;79.81;100375.91;5119185;28;20047;-47
2021/09/03 00:30:20;;;;;;;11.32;6.28;;;;;;;11.97;79.41;100369.81;5118863;27;20040;-47
2021/09/03 00:32:46;;;;;;;15.05;5.75;;;;;;;11.97;79.38;100382.94;5118795;28;20044;-47
2021/09/03 00:35:12;;;;;;;10.57;6.20;;;;;;;11.94;78.86;100377.75;5119014;28;20047;-47
2021/09/03 00:37:38;;;;;;;12.05;6.22;;;;;;;11.90;79.47;100370.84;5118911;28;20040;-47
2021/09/03 00:40:05;;;;;;;12.30;6.82;;;;;;;11.90;79.45;100371.72;5119496;28;20127;-48
2021/09/03 00:42:31;;;;;;;14.98;7.38;;;;;;;11.87;79.44;100374.41;5117851;28;20059;-47
2021/09/03 00:44:57;;;;;;;16.50;7.60;;;;;;;11.83;79.34;100374.44;5118523;28;20353;-48
2021/09/03 00:47:23;;;;;;;15.05;7.45;;;;;;;11.79;79.25;100373.66;5118783;28;20066;-48
2021/09/03 00:49:48;;;;;;;22.88;10.10;;;;;;;11.79;79.17;100371.03;5118800;28;20426;-48
2021/09/03 00:52:14;;;;;;;20.70;10.30;;;;;;;11.76;79.43;100372.84;5118368;28;20062;-48
2021/09/03 00:54:40;;;;;;;22.17;10.27;;;;;;;11.74;79.14;100374.66;5118288;28;20139;-47
2021/09/03 00:57:07;;;;;;;20.67;9.80;;;;;;;11.71;79.91;100367.72;5117679;28;20065;-47
2021/09/03 00:59:33;;;;;;;14.73;8.25;;;;;;;11.68;79.96;100367.78;5117684;28;20433;-47
2021/09/03 01:01:59;;;;;;;13.20;7.30;;;;;;;11.65;79.87;100373.94;5118510;28;20059;-47
2021/09/03 01:04:24;;;;;;;11.32;6.18;;;;;;;11.64;79.88;100366.13;5118660;28;20131;-47
2021/09/03 01:06:50;;;;;;;12.32;5.93;;;;;;;11.62;79.52;100370.53;5118112;28;20048;-47
2021/09/03 01:09:16;;;;;;;8.80;5.75;;;;;;;11.59;79.68;100360.09;5118347;28;20051;-47
2021/09/03 01:11:42;;;;;;;9.73;5.63;;;;;;;11.58;79.56;100366.25;5118330;28;20101;-47
2021/09/03 01:14:07;;;;;;;9.40;6.05;;;;;;;11.55;79.78;100361.91;5117963;28;20129;-47
2021/09/03 01:16:33;;;;;;;11.00;6.22;;;;;;;11.53;79.22;100354.97;5118160;28;20047;-47
2021/09/03 01:18:59;;;;;;;21.90;6.43;;;;;;;11.48;79.19;100349.81;5117868;28;20043;-48
2021/09/03 01:21:25;;;;;;;9.75;5.65;;;;;;;11.46;79.93;100348.97;5117765;28;20074;-48
2021/09/03 01:23:51;;;;;;;11.48;6.40;;;;;;;11.43;79.20;100344.66;5118067;28;20340;-47
2021/09/03 01:26:17;;;;;;;11.15;6.78;;;;;;;11.40;79.60;100342.09;5117141;28;20047;-47
2021/09/03 01:28:46;;;;;;;10.85;6.75;;;;;;;11.37;79.46;100341.28;5117992;28;20070;-47
2021/09/03 01:31:12;;;;;;;8.05;4.93;;;;;;;11.33;80.12;100335.25;5117951;28;20066;-47
2021/09/03 01:33:37;;;;;;;9.10;5.85;;;;;;;11.31;80.13;100330.91;5117563;28;20052;-47
2021/09/03 01:36:03;;;;;;;9.20;5.93;;;;;;;11.29;80.83;100333.56;5117785;28;20054;-47
2021/09/03 01:38:29;;;;;;;8.63;5.47;;;;;;;11.27;81.11;100337.97;5117804;28;20051;-47
2021/09/03 01:40:55;;;;;;;11.25;5.15;;;;;;;11.25;80.77;100336.31;5118580;28;20074;-47
2021/09/03 01:43:20;;;;;;;9.50;5.72;;;;;;;11.23;80.91;100331.06;5116880;28;20047;-48
2021/09/03 01:45:46;;;;;;;8.27;5.15;;;;;;;11.23;80.94;100333.69;5117423;28;20353;-47
2021/09/03 01:48:12;;;;;;;10.15;6.53;;;;;;;11.22;80.44;100326.72;5117653;28;20059;-48
2021/09/03 01:50:38;;;;;;;10.82;6.03;;;;;;;11.20;80.11;100328.50;5117633;28;20388;-47
2021/09/03 01:53:04;;;;;;;11.40;6.55;;;;;;;11.17;79.88;100321.56;5117173;28;20056;-47
2021/09/03 01:55:29;;;;;;;9.50;5.90;;;;;;;11.12;80.23;100328.66;5117290;28;20044;-47
2021/09/03 01:57:56;;;;;;;11.18;6.43;;;;;;;11.11;79.84;100321.66;5117370;28;20051;-47
2021/09/03 02:00:22;;;;;;;10.43;6.70;;;;;;;11.07;79.98;100330.50;5117176;28;20042;-47
2021/09/03 02:02:48;;;;;;;11.27;6.13;;;;;;;10.77;79.83;100275.16;5117121;28;20039;-47
2021/09/03 02:05:13;;;;;;;9.50;6.00;;;;;;;11.00;80.56;100310.53;5117321;28;20334;-47
2021/09/03 02:07:39;;;;;;;13.00;5.72;;;;;;;10.99;79.97;100314.06;5117021;28;20052;-47
2021/09/03 02:10:06;;;;;;;9.23;5.35;;;;;;;10.95;79.72;100310.63;5116990;28;20040;-47
2021/09/03 02:12:31;;;;;;;11.18;5.93;;;;;;;10.92;79.80;100317.66;5117193;28;20131;-47
2021/09/03 02:14:57;;;;;;;11.40;6.72;;;;;;;10.88;80.20;100318.63;5117171;28;20389;-47
2021/09/03 02:17:23;;;;;;;10.23;5.60;;;;;;;10.87;80.20;100323.00;5116905;28;20040;-47
2021/09/03 02:19:49;;;;;;;11.32;6.47;;;;;;;10.84;79.82;100323.06;5117090;28;20062;-47
2021/09/03 02:22:15;;;;;;;12.18;6.45;;;;;;;10.81;79.54;100319.63;5116869;28;20335;-47
2021/09/03 02:24:40;;;;;;;13.40;7.57;;;;;;;10.75;79.98;100323.22;5117021;28;20059;-47
2021/09/03 02:27:06;;;;;;;10.30;6.38;;;;;;;10.71;80.00;100317.16;5116681;28;20047;-48
2021/09/03 02:29:32;;;;;;;11.93;6.35;;;;;;;10.69;80.16;100316.34;5116749;28;20040;-47
2021/09/03 02:31:57;;;;;;;10.65;6.30;;;;;;;10.67;80.05;100315.50;5116893;28;20368;-47
2021/09/03 02:34:23;;;;;;;8.70;5.30;;;;;;;10.65;79.75;100311.19;5117157;28;20047;-47
2021/09/03 02:36:49;;;;;;;10.88;7.45;;;;;;;10.60;79.58;100308.66;5116520;28;20043;-47
2021/09/03 02:39:15;;;;;;;10.85;7.15;;;;;;;10.57;79.98;100307.84;5116547;28;20044;-47
2021/09/03 02:41:41;;;;;;;10.77;8.25;;;;;;;10.53;80.45;100307.88;5116505;28;20058;-47
2021/09/03 02:44:06;;;;;;;11.98;7.63;;;;;;;10.52;80.43;100305.28;5117332;28;20068;-47
2021/09/03 02:46:32;;;;;;;13.02;7.25;;;;;;;10.51;81.18;100306.19;5117270;28;20377;-47
2021/09/03 02:48:58;;;;;;;11.55;7.15;;;;;;;10.49;80.98;100311.44;5116723;28;20044;-47
2021/09/03 02:51:24;;;;;;;10.20;6.32;;;;;;;10.47;81.15;100300.13;5117026;28;20418;-47
2021/09/03 02:53:50;;;;;;;10.48;6.25;;;;;;;10.47;80.92;100304.50;5116705;28;20100;-47
2021/09/03 02:56:16;;;;;;;15.02;6.65;;;;;;;10.45;81.18;100294.03;5116257;28;20339;-47
2021/09/03 02:58:42;;;;;;;8.43;5.40;;;;;;;10.46;82.02;100290.56;5116344;28;20040;-47
2021/09/03 03:01:08;;;;;;;8.75;5.22;;;;;;;10.44;81.98;100288.84;5116593;28;20044;-47
2021/09/03 03:03:33;;;;;;;10.70;6.30;;;;;;;10.46;82.00;100290.56;5116576;28;20051;-47
2021/09/03 03:06:00;;;;;;;8.80;5.00;;;;;;;10.45;81.97;100283.56;5117058;28;20465;-47
2021/09/03 03:08:25;;;;;;;12.07;6.03;;;;;;;10.44;82.31;100281.00;5120722;28;20051;-47
2021/09/03 03:10:51;;;;;;;13.77;8.60;;;;;;;10.43;82.04;100279.25;5121162;28;20051;-47
2021/09/03 03:13:28;;;;;;;17.63;8.05;;;;;;;10.42;81.90;100278.38;5120657;28;20059;-47
2021/09/03 03:15:54;;;;;;;18.58;10.05;;;;;;;10.42;82.54;100280.13;5120240;28;20055;-47
2021/09/03 03:18:20;;;;;;;18.80;10.23;;;;;;;10.41;82.42;100274.03;5120555;28;20047;-47
2021/09/03 03:20:47;;;;;;;20.00;10.73;;;;;;;10.40;82.59;100274.06;5120203;28;20048;-47
2021/09/03 03:23:12;;;;;;;16.33;9.65;;;;;;;10.40;82.74;100274.94;5120462;28;20350;-47
2021/09/03 03:25:39;;;;;;;19.98;9.50;;;;;;;10.39;83.15;100273.19;5120405;28;20044;-47
2021/09/03 03:28:05;;;;;;;22.27;9.70;;;;;;;10.40;82.94;100266.19;5120117;28;20122;-47
2021/09/03 03:30:30;;;;;;;15.40;8.18;;;;;;;10.40;82.78;100261.84;5119993;28;20092;-47
2021/09/03 03:32:56;;;;;;;17.23;8.52;;;;;;;10.38;82.80;100265.38;5120311;28;20040;-47
2021/09/03 03:35:22;;;;;;;16.95;8.32;;;;;;;10.37;82.87;100261.91;5120012;28;20039;-47
2021/09/03 03:37:49;;;;;;;15.05;6.38;;;;;;;10.39;82.66;100260.09;5119856;28;20054;-47
2021/09/03 03:40:16;;;;;;;13.02;7.47;;;;;;;10.36;82.23;100257.53;5119812;28;20433;-47
2021/09/03 03:42:43;;;;;;;12.40;6.90;;;;;;;10.34;82.36;100248.84;5119713;28;20047;-47
2021/09/03 03:45:09;;;;;;;14.40;6.13;;;;;;;10.34;82.19;100246.25;5119771;28;20322;-47
2021/09/03 03:47:35;;;;;;;8.95;5.55;;;;;;;10.32;82.12;100242.78;5119991;28;20039;-47
2021/09/03 03:50:00;;;;;;;8.18;5.28;;;;;;;10.29;82.83;100251.53;5120467;28;20048;-47
2021/09/03 03:52:26;;;;;;;8.32;5.18;;;;;;;10.25;82.37;100248.97;5119634;28;20046;-47
2021/09/03 03:54:52;;;;;;;11.50;5.80;;;;;;;10.23;82.05;100246.38;5119814;28;20055;-47
2021/09/03 03:57:18;;;;;;;12.27;7.07;;;;;;;10.19;82.49;100249.94;5119716;28;20055;-47
2021/09/03 03:59:43;;;;;;;12.73;8.35;;;;;;;10.19;82.78;100249.94;5119741;28;20441;-47
2021/09/03 04:02:09;;;;;;;16.25;9.13;;;;;;;10.20;83.03;100248.19;5118878;28;20426;-47
2021/09/03 04:04:35;;;;;;;14.32;8.90;;;;;;;10.19;82.98;100241.22;5118803;28;20059;-47
2021/09/03 04:07:01;;;;;;;12.93;7.80;;;;;;;10.18;82.95;100247.34;5119612;28;20039;-47
2021/09/03 04:09:27;;;;;;;14.38;7.07;;;;;;;10.19;83.03;100239.47;5119561;28;20058;-47
2021/09/03 04:11:53;;;;;;;11.80;7.22;;;;;;;10.19;82.94;100243.84;5119511;28;20048;-47
2021/09/03 04:14:18;;;;;;;10.23;6.18;;;;;;;10.19;83.02;100244.69;5119215;28;20036;-47
2021/09/03 04:16:46;;;;;;;14.55;6.90;;;;;;;10.20;82.83;100248.19;5119035;28;20050;-47
2021/09/03 04:19:12;;;;;;;11.02;5.68;;;;;;;10.21;83.38;100242.94;5119091;28;20438;-47
2021/09/03 04:21:38;;;;;;;10.68;6.03;;;;;;;10.22;83.19;100239.41;5119099;28;20097;-47
2021/09/03 04:24:04;;;;;;;9.68;5.88;;;;;;;10.21;82.85;100237.69;5119003;28;20330;-47
2021/09/03 04:26:30;;;;;;;10.77;5.68;;;;;;;10.19;83.45;100229.00;5118929;28;20131;-47
2021/09/03 04:28:56;;;;;;;15.48;6.70;;;;;;;10.22;83.55;100233.31;5119191;28;20083;-47
2021/09/03 04:31:22;;;;;;;13.52;6.03;;;;;;;10.23;83.59;100233.28;5118902;28;20036;-47
2021/09/03 04:33:48;;;;;;;14.70;7.32;;;;;;;10.25;83.71;100231.50;5119101;28;20105;-47
2021/09/03 04:36:13;;;;;;;11.98;6.53;;;;;;;10.28;83.84;100239.34;5118637;27;20052;-47
2021/09/03 04:38:39;;;;;;;10.48;6.15;;;;;;;10.32;83.81;100234.06;5118775;28;20056;-47
2021/09/03 04:41:05;;;;;;;14.23;6.28;;;;;;;10.33;83.99;100222.69;5119498;28;20055;-47
2021/09/03 04:43:30;;;;;;;19.55;8.50;;;;;;;10.34;83.98;100225.28;5118594;28;20055;-47
2021/09/03 04:45:56;;;;;;;17.25;8.43;;;;;;;10.37;84.09;100216.53;5118887;28;20107;-47
2021/09/03 04:48:22;;;;;;;14.05;7.22;;;;;;;10.40;84.18;100216.44;5119127;28;20046;-47
2021/09/03 04:50:48;;;;;;;17.42;8.45;;;;;;;10.44;85.00;100224.25;5118744;28;20120;-47
2021/09/03 04:53:14;;;;;;;15.85;9.40;;;;;;;10.49;85.03;100224.13;5118387;28;20066;-47
2021/09/03 04:55:40;;;;;;;15.45;9.90;;;;;;;10.51;85.43;100223.22;5118454;28;20043;-47
2021/09/03 04:58:05;;;;;;;16.08;9.68;;;;;;;10.55;85.10;100217.94;5118244;27;20043;-47
2021/09/03 05:00:31;;;;;;;17.52;9.43;;;;;;;10.58;85.38;100226.59;5117348;28;20144;-47
2021/09/03 05:02:57;;;;;;;20.75;10.07;;;;;;;10.65;85.19;100227.34;5116577;28;20035;-47
2021/09/03 05:05:22;;;;;;;14.73;9.02;;;;;;;10.71;85.50;100235.94;5116485;28;20044;-47
2021/09/03 05:07:48;;;;;;;13.65;8.13;;;;;;;10.79;86.11;100227.06;5116590;28;20103;-47
2021/09/03 05:10:14;;;;;;;24.00;8.05;;;;;;;11.09;86.71;100223.88;5117182;28;20399;-47
2021/09/03 05:12:40;;;;;;;12.20;7.85;;;;;;;11.63;87.38;100223.56;5117048;28;20040;-47
2021/09/03 05:15:16;;;;;;;32.63;8.23;;;;;;;12.26;87.01;100226.47;5117747;28;20062;-47
2021/09/03 05:17:43;;;;;;;58.90;10.65;;;;;;;12.94;85.88;100218.50;5117096;28;20043;-48
2021/09/03 05:20:11;;;;;;;11.60;7.45;;;;;;;13.47;84.68;100215.25;5117964;28;20035;-48
2021/09/03 05:22:36;;;;;;;25.20;10.55;;;;;;;14.08;83.56;100222.97;5118186;28;20119;-48
2021/09/03 05:25:03;;;;;;;16.42;10.32;;;;;;;14.64;81.62;100215.81;5118090;28;20059;-48
2021/09/03 05:27:29;;;;;;;14.90;9.32;;;;;;;15.11;80.31;100217.63;5118062;28;20039;-48
2021/09/03 05:29:55;;;;;;;10.80;7.32;;;;;;;15.70;79.50;100217.16;5118200;28;20112;-48
2021/09/03 05:32:20;;;;;;;10.10;6.63;;;;;;;16.18;77.32;100221.34;5117950;28;20051;-48
2021/09/03 05:34:46;;;;;;;9.05;6.15;;;;;;;16.56;76.09;100221.50;5118174;28;20047;-48
2021/09/03 05:37:12;;;;;;;7.30;5.43;;;;;;;17.05;74.96;100214.09;5117565;28;20039;-48
2021/09/03 05:39:37;;;;;;;12.27;5.97;;;;;;;17.48;72.99;100204.16;5117599;28;20043;-48
2021/09/03 05:42:04;;;;;;;8.50;5.80;;;;;;;17.80;71.53;100207.09;5117518;28;20047;-48
2021/09/03 05:44:30;;;;;;;7.20;5.38;;;;;;;18.15;70.69;100211.50;5117746;28;20074;-48
2021/09/03 05:46:56;;;;;;;11.15;5.90;;;;;;;18.54;69.62;100201.63;5117914;28;20043;-48
2021/09/03 05:49:21;;;;;;;11.07;5.97;;;;;;;18.94;68.71;100199.53;5117199;27;20043;-48
2021/09/03 05:51:47;;;;;;;8.93;5.78;;;;;;;19.09;66.88;100198.72;5117834;28;20051;-48
2021/09/03 05:54:13;;;;;;;5.85;4.63;;;;;;;19.44;66.95;100195.94;5117292;28;20315;-48
2021/09/03 05:56:39;;;;;;;10.05;6.72;;;;;;;19.66;65.56;100195.59;5117456;27;20035;-48
2021/09/03 05:59:05;;;;;;;8.13;5.60;;;;;;;20.01;65.57;100204.22;5117439;28;20052;-49
2021/09/03 06:01:31;;;;;;;14.30;8.77;;;;;;;20.17;64.03;100196.22;5117395;28;20418;-49
2021/09/03 06:03:57;;;;;;;13.05;8.80;;;;;;;20.40;63.23;100197.50;5117361;28;20059;-49
2021/09/03 06:06:22;;;;;;;10.63;7.55;;;;;;;20.46;62.31;100184.69;5117296;28;20047;-49
2021/09/03 06:08:49;;;;;;;10.77;5.82;;;;;;;20.86;62.69;100190.28;5117016;28;20035;-49
2021/09/03 06:11:15;;;;;;;10.88;5.88;;;;;;;20.98;61.38;100186.88;5116965;28;20043;-49
2021/09/03 06:13:41;;;;;;;9.50;5.80;;;;;;;21.06;60.33;100177.53;5116958;28;20353;-49
2021/09/03 06:16:06;;;;;;;7.53;4.70;;;;;;;21.18;60.12;100174.97;5116762;28;20457;-49
2021/09/03 06:18:32;;;;;;;11.40;5.28;;;;;;;21.38;59.88;100178.19;5117056;28;20051;-49
2021/09/03 06:20:58;;;;;;;5.53;4.60;;;;;;;21.33;59.08;100180.28;5116696;28;20104;-49
2021/09/03 06:23:24;;;;;;;7.07;4.65;;;;;;;21.50;59.18;100176.56;5117357;28;20047;-49
2021/09/03 06:25:50;;;;;;;6.60;4.60;;;;;;;21.61;59.15;100168.72;5116706;28;20055;-49
2021/09/03 06:28:15;;;;;;;8.05;5.25;;;;;;;21.70;58.76;100166.31;5116960;28;20054;-49
2021/09/03 06:30:41;;;;;;;8.55;5.75;;;;;;;21.76;58.11;100167.72;5116957;28;20047;-49
2021/09/03 06:33:07;;;;;;;6.47;5.20;;;;;;;21.96;58.65;100169.06;5116604;28;20138;-49
2021/09/03 06:35:32;;;;;;;7.45;5.35;;;;;;;21.92;58.01;100165.75;5116870;28;20058;-49
2021/09/03 06:37:58;;;;;;;8.02;5.70;;;;;;;22.03;57.85;100169.50;5116692;28;20342;-49
2021/09/03 06:40:24;;;;;;;6.35;3.97;;;;;;;22.03;57.25;100158.84;5115452;28;20059;-49
2021/09/03 06:42:50;;;;;;;6.60;4.30;;;;;;;22.05;56.66;100160.44;5116708;28;20063;-49
2021/09/03 06:45:16;;;;;;;10.57;7.22;;;;;;;21.98;56.29;100152.97;5116807;28;20055;-49
2021/09/03 06:47:41;;;;;;;7.90;4.85;;;;;;;21.98;56.46;100152.97;5116452;28;20456;-49
2021/09/03 06:50:09;;;;;;;5.40;4.05;;;;;;;22.11;57.32;100153.84;5116734;28;20059;-49
2021/09/03 06:52:35;;;;;;;5.90;4.28;;;;;;;22.17;56.40;100154.34;5116688;28;20219;-49
2021/09/03 06:55:02;;;;;;;7.60;4.75;;;;;;;22.10;56.20;100150.34;5116703;28;20434;-49
2021/09/03 06:57:28;;;;;;;5.93;4.18;;;;;;;22.19;56.51;100150.69;5116475;28;20039;-49
2021/09/03 06:59:53;;;;;;;10.52;4.15;;;;;;;22.21;55.61;100148.78;5116403;28;20046;-49
2021/09/03 07:02:19;;;;;;;8.88;4.60;;;;;;;22.34;55.67;100144.31;5116340;28;20046;-49
2021/09/03 07:04:45;;;;;;;6.97;4.22;;;;;;;22.39;56.69;100151.06;5116552;28;20043;-49
2021/09/03 07:07:11;;;;;;;6.43;4.60;;;;;;;22.44;55.42;100148.06;5116556;28;20144;-49
2021/09/03 07:09:37;;;;;;;7.93;4.20;;;;;;;22.51;55.59;100153.81;5115432;28;20426;-49
2021/09/03 07:12:03;;;;;;;5.03;3.63;;;;;;;22.63;56.40;100151.16;5116248;28;20055;-49
2021/09/03 07:14:29;;;;;;;7.65;4.30;;;;;;;22.82;55.74;100144.53;5116475;28;20075;-49
2021/09/03 07:16:54;;;;;;;9.32;4.80;;;;;;;22.97;55.06;100148.81;5116399;28;20449;-50
2021/09/03 07:19:20;;;;;;;6.78;4.60;;;;;;;23.07;55.36;100141.00;5116423;28;20055;-50
2021/09/03 07:21:46;;;;;;;7.22;5.35;;;;;;;23.21;55.56;100140.88;5116308;28;20060;-50
2021/09/03 07:24:12;;;;;;;6.68;4.78;;;;;;;23.26;55.24;100144.03;5116437;28;20071;-50
2021/09/03 07:26:38;;;;;;;9.40;6.28;;;;;;;23.21;54.64;100146.22;5116602;28;20433;-49
2021/09/03 07:29:04;;;;;;;5.95;4.43;;;;;;;23.27;55.03;100148.44;5116630;28;20133;-50
2021/09/03 07:31:31;;;;;;;4.85;3.65;;;;;;;23.22;53.93;100142.56;5116345;28;20055;-50
2021/09/03 07:33:57;;;;;;;5.90;4.22;;;;;;;23.36;55.11;100140.69;5116574;28;20357;-50
2021/09/03 07:36:22;;;;;;;12.73;7.47;;;;;;;23.47;54.22;100144.31;5116218;28;20044;-50
2021/09/03 07:38:48;;;;;;;5.30;3.80;;;;;;;23.59;54.73;100142.53;5116219;28;20055;-50
2021/09/03 07:41:14;;;;;;;5.00;3.28;;;;;;;23.70;54.84;100141.78;5116267;28;20084;-50
2021/09/03 07:43:40;;;;;;;4.25;2.90;;;;;;;23.84;54.37;100149.63;5115899;28;20364;-50
2021/09/03 07:46:06;;;;;;;4.60;2.97;;;;;;;24.03;53.76;100141.06;5098476;28;20126;-50
2021/09/03 07:48:31;;;;;;;4.53;3.13;;;;;;;24.19;52.77;100130.91;5116181;28;20047;-50
2021/09/03 07:50:57;;;;;;;5.50;3.50;;;;;;;24.23;52.20;100132.38;5116177;28;20354;-50
2021/09/03 07:53:23;;;;;;;5.35;3.10;;;;;;;24.26;51.66;100136.63;5119098;28;20410;-50
2021/09/03 07:55:49;;;;;;;4.35;3.03;;;;;;;24.30;51.43;100130.06;5119524;28;20036;-50
2021/09/03 07:58:14;;;;;;;6.88;3.10;;;;;;;24.34;51.91;100136.91;5119718;28;20043;-50
2021/09/03 08:00:40;;;;;;;3.58;2.45;;;;;;;24.49;51.04;100130.38;5119532;28;20040;-50
2021/09/03 08:03:06;;;;;;;3.35;2.25;;;;;;;24.57;48.97;100128.91;5119705;28;20055;-50
2021/09/03 08:05:32;;;;;;;2.55;1.88;;;;;;;24.67;47.41;100136.13;5119702;28;20047;-50
2021/09/03 08:07:58;;;;;;;3.88;2.13;;;;;;;24.69;49.16;100139.53;5118690;28;20052;-50
2021/09/03 08:10:24;;;;;;;3.55;2.15;;;;;;;24.80;48.55;100133.34;5118413;28;20054;-50
2021/09/03 08:12:49;;;;;;;4.20;2.10;;;;;;;24.66;46.40;100142.44;5118363;28;20051;-50
2021/09/03 08:15:15;;;;;;;2.50;1.75;;;;;;;24.67;47.76;100135.28;5119494;28;20039;-50
2021/09/03 08:17:41;;;;;;;3.95;3.15;;;;;;;24.72;47.60;100130.41;5119600;28;20048;-50
2021/09/03 08:20:08;;;;;;;2.50;1.95;;;;;;;24.81;47.59;100126.16;5119196;28;20548;-50
2021/09/03 08:22:34;;;;;;;2.90;2.35;;;;;;;24.83;47.65;100130.41;5119386;28;20078;-50
2021/09/03 08:25:01;;;;;;;3.30;2.35;;;;;;;24.88;47.65;100122.84;5119074;28;20449;-50
2021/09/03 08:27:27;;;;;;;2.67;1.80;;;;;;;24.97;48.71;100128.47;5119237;28;20050;-50
2021/09/03 08:29:53;;;;;;;4.15;2.55;;;;;;;25.09;46.87;100124.78;5118328;28;20051;-50
2021/09/03 08:32:18;;;;;;;3.53;2.33;;;;;;;25.18;48.07;100118.72;5119666;28;20335;-50
2021/09/03 08:34:44;;;;;;;3.47;2.65;;;;;;;25.16;46.84;100124.22;5119093;28;20456;-50
2021/09/03 08:37:11;;;;;;;3.70;2.95;;;;;;;25.14;48.71;100112.75;5118674;28;20044;-50
2021/09/03 08:39:37;;;;;;;6.22;3.47;;;;;;;25.16;47.49;100104.59;5118770;28;20380;-50
2021/09/03 08:42:03;;;;;;;3.97;3.33;;;;;;;25.24;49.06;100096.78;5118648;28;20047;-50
2021/09/03 08:44:32;;;;;;;5.45;3.80;;;;;;;25.28;48.79;100114.28;5118603;27;20446;-50
2021/09/03 08:46:58;;;;;;;5.95;4.00;;;;;;;25.37;48.93;100096.63;5118654;27;20066;-50
2021/09/03 08:49:24;;;;;;;4.68;3.90;;;;;;;25.38;49.38;100103.69;5118840;28;20450;-50
2021/09/03 08:51:50;;;;;;;5.10;3.80;;;;;;;25.39;48.86;100116.13;5117946;28;20388;-50
2021/09/03 08:54:15;;;;;;;8.95;4.40;;;;;;;25.36;48.45;100102.97;5117870;28;20044;-50
2021/09/03 08:56:41;;;;;;;5.32;3.65;;;;;;;25.36;49.86;100100.28;5118361;28;20043;-50
2021/09/03 08:59:07;;;;;;;6.28;4.47;;;;;;;25.45;49.53;100104.03;5118420;28;20453;-50
2021/09/03 09:01:33;;;;;;;9.68;5.47;;;;;;;25.45;48.86;100102.22;5118559;28;20047;-50
2021/09/03 09:04:07;;;;;;;9.82;6.07;;;;;;;25.39;48.46;100105.41;5117315;28;20047;-50
2021/09/03 09:06:33;;;;;;;9.98;6.72;;;;;;;25.31;48.68;100103.31;5117514;28;20130;-50
2021/09/03 09:09:09;;;;;;;10.63;5.55;;;;;;;25.12;49.56;100100.44;5117362;28;20035;-50
2021/09/03 09:11:36;;;;;;;8.10;6.22;;;;;;;24.96;49.05;100098.16;5117904;28;20062;-49
2021/09/03 09:14:10;;;;;;;14.45;5.90;;;;;;;24.88;47.92;100093.38;5118645;28;20048;-50
2021/09/03 09:16:36;;;;;;;9.07;6.43;;;;;;;24.78;48.10;100104.97;5117424;28;20039;-50
2021/09/03 09:19:03;;;;;;;10.23;6.28;;;;;;;24.71;48.45;100100.09;5118262;28;20073;-50
2021/09/03 09:21:36;;;;;;;7.03;5.63;;;;;;;24.63;49.47;100096.31;5117999;28;20047;-50
2021/09/03 09:24:06;;;;;;;8.52;5.47;;;;;;;24.47;49.81;100099.34;5118157;28;20051;-50
2021/09/03 09:26:41;;;;;;;8.82;5.38;;;;;;;24.49;50.86;100089.38;5117853;28;20110;-50
2021/09/03 09:29:31;;;;;;;11.05;6.43;;;;;;;24.59;50.19;100086.81;5117069;28;20070;-50
2021/09/03 09:32:04;;;;;;;8.43;5.38;;;;;;;24.75;51.49;100087.31;5116824;28;20059;-50
2021/09/03 09:34:34;;;;;;;8.65;5.63;;;;;;;24.76;50.31;100083.66;5118096;28;20051;-50
2021/09/03 09:37:01;;;;;;;9.68;6.20;;;;;;;24.86;48.89;100078.41;5117836;28;20047;-50
2021/09/03 09:39:27;;;;;;;7.68;5.70;;;;;;;25.05;49.34;100077.78;5116878;28;20480;-50
2021/09/03 09:42:01;;;;;;;9.77;5.57;;;;;;;25.10;48.52;100072.91;5111066;28;20056;-50
2021/09/03 09:44:30;;;;;;;8.43;5.43;;;;;;;25.12;48.67;100066.50;5117765;28;20062;-50
2021/09/03 09:47:12;;;;;;;8.73;5.50;;;;;;;25.10;48.67;100072.91;5117947;28;20051;-49
2021/09/03 09:49:37;;;;;;;12.88;6.25;;;;;;;24.93;48.99;100072.44;5117444;28;20069;-50
2021/09/03 09:52:04;;;;;;;8.73;5.55;;;;;;;24.95;48.29;100072.31;5118160;28;20047;-50
2021/09/03 09:54:30;;;;;;;8.90;6.15;;;;;;;24.91;48.72;100054.78;5117235;28;20043;-50
2021/09/03 09:57:00;;;;;;;9.18;6.57;;;;;;;25.00;49.36;100064.78;5117197;28;20047;-50
2021/09/03 09:59:27;;;;;;;6.50;5.10;;;;;;;25.16;50.14;100057.22;5117503;28;20068;-50
2021/09/03 10:01:58;;;;;;;9.27;5.70;;;;;;;25.33;50.25;100057.66;5117400;28;20132;-50
2021/09/03 10:04:26;;;;;;;8.82;5.65;;;;;;;25.39;49.08;100054.47;5117437;28;20059;-50
2021/09/03 10:07:00;;;;;;;10.02;5.88;;;;;;;25.45;48.78;100050.41;5116985;28;20059;-50
2021/09/03 10:09:27;;;;;;;7.03;5.07;;;;;;;25.38;48.40;100050.06;5117075;28;20040;-50
2021/09/03 10:11:55;;;;;;;9.43;5.40;;;;;;;25.35;48.98;100047.66;5117195;28;20438;-50
2021/09/03 10:14:23;;;;;;;6.82;6.13;;;;;;;25.37;48.84;100030.44;5117216;28;20062;-50
2021/09/03 10:16:49;;;;;;;8.73;6.03;;;;;;;25.57;48.67;100038.66;5116989;28;20055;-50
2021/09/03 10:19:30;;;;;;;7.85;5.35;;;;;;;25.45;47.34;100024.47;5117158;28;20055;-50
2021/09/03 10:22:06;;;;;;;9.95;6.70;;;;;;;25.50;48.51;100041.00;5116911;28;20055;-50
2021/09/03 10:24:35;;;;;;;8.50;6.07;;;;;;;25.53;47.93;100037.22;5116247;28;20070;-50
2021/09/03 10:27:00;;;;;;;5.80;4.72;;;;;;;25.46;47.20;100028.84;5116755;28;20127;-50
2021/09/03 10:29:29;;;;;;;9.40;5.70;;;;;;;25.44;48.90;100028.13;5098829;28;20047;-50
2021/09/03 10:32:04;;;;;;;10.13;6.03;;;;;;;25.44;49.07;100030.78;5117251;28;20149;-50
2021/09/03 10:37:13;;;;;;;8.73;6.45;;;;;;;25.50;47.69;100016.03;5116854;28;20044;-50
2021/09/03 10:39:42;;;;;;;10.45;6.18;;;;;;;25.44;47.85;100012.03;5116835;28;20420;-50
2021/09/03 10:42:08;;;;;;;11.85;4.82;;;;;;;25.41;47.50;100015.84;5115708;28;20046;-50
2021/09/03 10:45:02;;;;;;;7.28;5.00;;;;;;;25.32;45.08;100011.25;5115717;28;20572;-50
2021/09/03 10:47:57;;;;;;;6.65;4.90;;;;;;;25.20;47.47;100006.91;5116714;28;20048;-50
2021/09/03 10:50:22;;;;;;;9.32;5.25;;;;;;;25.31;48.46;100004.16;5101221;28;20411;-50
2021/09/03 10:53:04;;;;;;;7.50;5.55;;;;;;;25.40;46.68;100016.78;5116411;28;20048;-50
2021/09/03 10:55:48;;;;;;;9.23;5.60;;;;;;;25.35;48.12;100000.25;5116726;28;20349;-50
2021/09/03 10:58:31;;;;;;;6.68;4.18;;;;;;;25.38;47.52;99999.13;5116558;28;20051;-50
2021/09/03 11:01:09;;;;;;;8.00;4.97;;;;;;;25.37;46.66;100000.97;5116693;28;20059;-50
2021/09/03 11:04:04;;;;;;;6.60;4.82;;;;;;;25.41;48.24;99994.38;5116360;28;20055;-50
2021/09/03 11:06:31;;;;;;;8.98;5.80;;;;;;;25.34;47.38;99986.97;5111664;28;20048;-50
2021/09/03 11:08:57;;;;;;;7.47;5.35;;;;;;;25.36;47.54;99985.03;5116576;28;20125;-50
2021/09/03 11:11:33;;;;;;;8.75;5.25;;;;;;;25.41;48.22;99981.00;5116869;28;20043;-50
2021/09/03 11:13:59;;;;;;;7.35;5.72;;;;;;;25.41;47.34;99980.13;5116579;28;20044;-50
2021/09/03 11:16:35;;;;;;;7.97;4.95;;;;;;;25.44;45.96;99985.22;5081818;28;20059;-50
2021/09/03 11:19:08;;;;;;;7.75;6.25;;;;;;;25.46;47.14;99982.41;5116580;28;20051;-50
2021/09/03 11:21:37;;;;;;;5.60;4.10;;;;;;;25.45;46.71;99968.19;5116235;28;20060;-50
2021/09/03 11:24:04;;;;;;;6.30;4.05;;;;;;;25.52;48.11;99966.66;5116123;28;20048;-50